createdAt,value
2018-12-13T00:01:40.941Z,1.07
2018-12-13T00:04:08.330Z,1.02
2018-12-13T00:06:35.733Z,1.01
2018-12-13T00:09:03.523Z,1.07
2018-12-13T00:11:30.950Z,1.10
2018-12-13T00:13:58.368Z,1.12
2018-12-13T00:16:25.769Z,1.14
2018-12-13T00:18:53.309Z,1.15
2018-12-13T00:21:20.749Z,1.13
2018-12-13T00:23:48.163Z,1.20
2018-12-13T00:26:15.568Z,1.19
2018-12-13T00:28:42.976Z,1.14
2018-12-13T00:31:10.383Z,1.19
2018-12-13T00:33:38.717Z,1.20
2018-12-13T00:36:06.137Z,1.17
2018-12-13T00:38:33.583Z,1.25
2018-12-13T00:41:01.000Z,1.29
2018-12-13T00:43:28.402Z,1.28
2018-12-13T00:45:55.806Z,1.22
2018-12-13T00:48:23.209Z,1.26
2018-12-13T00:50:50.610Z,1.24
2018-12-13T00:53:18.009Z,1.17
2018-12-13T00:55:45.446Z,1.19
2018-12-13T00:58:12.867Z,1.22
2018-12-13T01:00:40.311Z,1.21
2018-12-13T01:03:08.379Z,1.23
2018-12-13T01:05:35.918Z,1.25
2018-12-13T01:08:03.331Z,1.26
2018-12-13T01:10:30.730Z,1.29
2018-12-13T01:12:58.167Z,1.26
2018-12-13T01:15:27.553Z,1.26
2018-12-13T01:17:54.970Z,1.26
2018-12-13T01:20:22.424Z,1.30
2018-12-13T01:22:49.862Z,1.31
2018-12-13T01:25:17.279Z,1.26
2018-12-13T01:27:44.699Z,1.27
2018-12-13T01:30:12.115Z,1.17
2018-12-13T01:32:39.532Z,1.22
2018-12-13T01:35:06.950Z,1.27
2018-12-13T01:37:34.381Z,1.35
2018-12-13T01:40:01.801Z,1.40
2018-12-13T01:42:29.226Z,1.44
2018-12-13T01:44:56.643Z,1.45
2018-12-13T01:47:24.167Z,1.45
2018-12-13T01:49:51.596Z,1.36
2018-12-13T01:52:19.040Z,1.27
2018-12-13T01:54:46.476Z,1.20
2018-12-13T01:57:13.880Z,1.15
2018-12-13T01:59:41.321Z,1.10
2018-12-13T02:02:08.738Z,1.07
2018-12-13T02:04:36.180Z,1.00
2018-12-13T02:07:03.607Z,0.96
2018-12-13T02:09:31.028Z,0.88
2018-12-13T02:11:58.461Z,0.79
2018-12-13T02:14:25.935Z,0.66
2018-12-13T02:16:53.376Z,0.64
2018-12-13T02:19:20.886Z,0.57
2018-12-13T02:21:48.324Z,0.54
2018-12-13T02:24:15.788Z,0.49
2018-12-13T02:26:43.212Z,0.49
2018-12-13T02:29:10.658Z,0.47
2018-12-13T02:31:38.067Z,0.47
2018-12-13T02:34:05.481Z,0.43
2018-12-13T02:36:32.902Z,0.48
2018-12-13T02:39:00.339Z,0.48
2018-12-13T02:41:27.783Z,0.50
2018-12-13T02:43:55.197Z,0.48
2018-12-13T02:46:22.631Z,0.47
2018-12-13T02:48:53.889Z,0.38
2018-12-13T02:51:21.324Z,0.31
2018-12-13T02:53:48.775Z,0.28
2018-12-13T02:56:16.193Z,0.25
2018-12-13T02:58:43.611Z,0.17
2018-12-13T03:01:11.067Z,0.21
2018-12-13T03:03:38.605Z,0.20
2018-12-13T03:06:05.999Z,0.22
2018-12-13T03:08:33.425Z,0.23
2018-12-13T03:11:00.939Z,0.26
2018-12-13T03:13:28.375Z,0.27
2018-12-13T03:15:55.797Z,0.26
2018-12-13T03:18:23.210Z,0.21
2018-12-13T03:20:50.657Z,0.11
2018-12-13T03:23:18.055Z,0.11
2018-12-13T03:25:45.505Z,0.12
2018-12-13T03:28:12.921Z,0.08
2018-12-13T03:30:40.349Z,0.06
2018-12-13T03:33:07.878Z,0.05
2018-12-13T03:35:35.358Z,0.02
2018-12-13T03:38:02.872Z,0.04
2018-12-13T03:40:30.303Z,0.01
2018-12-13T03:42:57.725Z,0.05
2018-12-13T03:45:25.136Z,0.06
2018-12-13T03:47:52.548Z,0.06
2018-12-13T03:50:19.955Z,-0.03
2018-12-13T03:52:47.396Z,-0.05
2018-12-13T03:55:14.853Z,0.08
2018-12-13T03:57:42.296Z,0.09
2018-12-13T04:00:09.822Z,0.01
2018-12-13T04:02:37.255Z,-0.04
2018-12-13T04:05:05.521Z,-0.06
2018-12-13T04:07:32.947Z,0.00
2018-12-13T04:10:00.369Z,0.03
2018-12-13T04:12:27.825Z,0.08
2018-12-13T04:14:55.353Z,0.03
2018-12-13T04:17:22.806Z,-0.05
2018-12-13T04:19:50.229Z,-0.12
2018-12-13T04:22:17.664Z,-0.11
2018-12-13T04:24:45.103Z,-0.05
2018-12-13T04:27:12.537Z,-0.01
2018-12-13T04:29:39.965Z,0.04
2018-12-13T04:32:07.428Z,-0.03
2018-12-13T04:34:34.882Z,-0.05
2018-12-13T04:37:02.399Z,-0.10
2018-12-13T04:39:29.827Z,-0.10
2018-12-13T04:41:57.257Z,-0.13
2018-12-13T04:44:24.676Z,-0.12
2018-12-13T04:46:52.097Z,-0.14
2018-12-13T04:49:19.551Z,-0.13
2018-12-13T04:51:46.994Z,-0.10
2018-12-13T04:54:14.532Z,-0.13
2018-12-13T04:56:42.707Z,-0.15
2018-12-13T04:59:10.143Z,-0.15
2018-12-13T05:01:37.571Z,-0.17
2018-12-13T05:04:05.013Z,-0.11
2018-12-13T05:06:32.439Z,-0.05
2018-12-13T05:08:59.903Z,-0.05
2018-12-13T05:11:27.323Z,-0.07
2018-12-13T05:13:54.771Z,-0.06
2018-12-13T05:16:22.201Z,-0.10
2018-12-13T05:18:49.633Z,-0.15
2018-12-13T05:21:17.059Z,-0.18
2018-12-13T05:23:45.101Z,-0.15
2018-12-13T05:26:12.537Z,-0.21
2018-12-13T05:28:39.975Z,-0.24
2018-12-13T05:31:07.383Z,-0.27
2018-12-13T05:33:35.135Z,-0.23
2018-12-13T05:36:02.569Z,-0.26
2018-12-13T05:38:29.991Z,-0.09
2018-12-13T05:40:57.429Z,-0.10
2018-12-13T05:43:25.918Z,-0.11
2018-12-13T05:45:53.527Z,-0.03
2018-12-13T05:48:21.007Z,-0.01
2018-12-13T05:50:48.409Z,0.13
2018-12-13T05:53:15.840Z,0.32
2018-12-13T05:55:43.294Z,0.37
2018-12-13T05:58:10.711Z,0.42
2018-12-13T06:00:38.163Z,0.49
2018-12-13T06:03:05.581Z,0.54
2018-12-13T06:05:33.027Z,0.61
2018-12-13T06:08:00.448Z,0.69
2018-12-13T06:10:27.870Z,0.72
2018-12-13T06:12:55.291Z,0.79
2018-12-13T06:15:22.715Z,0.83
2018-12-13T06:17:50.135Z,0.84
2018-12-13T06:20:17.573Z,0.91
2018-12-13T06:22:45.005Z,0.95
2018-12-13T06:25:12.476Z,0.92
2018-12-13T06:27:39.901Z,0.91
2018-12-13T06:34:55.133Z,0.90
2018-12-13T06:37:22.565Z,0.97
2018-12-13T06:39:49.979Z,1.03
2018-12-13T06:42:17.402Z,1.03
2018-12-13T06:44:44.831Z,1.00
2018-12-13T06:47:12.279Z,1.00
2018-12-13T06:49:39.722Z,1.05
2018-12-13T06:52:07.143Z,1.11
2018-12-13T06:54:34.558Z,1.08
2018-12-13T06:57:01.984Z,1.13
2018-12-13T06:59:29.434Z,1.14
2018-12-13T07:01:56.855Z,1.11
2018-12-13T07:04:24.300Z,1.09
2018-12-13T07:06:51.750Z,1.08
2018-12-13T07:09:19.167Z,1.12
2018-12-13T07:11:46.591Z,1.16
2018-12-13T07:14:14.030Z,1.16
2018-12-13T07:16:41.456Z,1.11
2018-12-13T07:19:08.916Z,1.09
2018-12-13T07:21:36.427Z,1.08
2018-12-13T07:24:03.896Z,1.09
2018-12-13T07:26:31.321Z,1.08
2018-12-13T07:28:58.834Z,1.08
2018-12-13T07:31:26.250Z,1.11
2018-12-13T07:33:53.814Z,1.17
2018-12-13T07:36:21.283Z,1.17
2018-12-13T07:38:48.759Z,1.20
2018-12-13T07:41:16.215Z,1.25
2018-12-13T07:43:43.633Z,1.20
2018-12-13T07:46:11.052Z,1.27
2018-12-13T07:48:38.474Z,1.31
2018-12-13T07:51:05.883Z,1.32
2018-12-13T07:53:33.317Z,1.33
2018-12-13T07:56:00.863Z,1.36
2018-12-13T07:58:28.358Z,1.33
2018-12-13T08:00:55.763Z,1.33
2018-12-13T08:03:23.192Z,1.27
2018-12-13T08:05:50.625Z,1.31
2018-12-13T08:08:21.057Z,1.32
2018-12-13T08:10:47.487Z,1.32
2018-12-13T08:13:14.915Z,1.33
2018-12-13T08:15:42.434Z,1.35
2018-12-13T08:18:09.861Z,1.32
2018-12-13T08:20:37.288Z,1.45
2018-12-13T08:23:04.735Z,1.39
2018-12-13T08:25:32.206Z,1.34
2018-12-13T08:27:59.611Z,1.46
2018-12-13T08:30:27.055Z,1.45
2018-12-13T08:32:54.475Z,1.46
2018-12-13T08:35:21.897Z,1.49
2018-12-13T08:37:49.323Z,1.48
2018-12-13T08:40:16.758Z,1.48
2018-12-13T08:42:44.203Z,1.41
2018-12-13T08:45:11.630Z,1.41
2018-12-13T08:47:39.061Z,1.49
2018-12-13T08:50:06.635Z,1.46
2018-12-13T08:52:34.059Z,1.57
2018-12-13T08:55:01.527Z,1.54
2018-12-13T08:57:28.948Z,1.57
2018-12-13T08:59:56.379Z,1.48
2018-12-13T09:02:23.804Z,1.50
2018-12-13T09:04:51.240Z,1.50
2018-12-13T09:07:18.682Z,1.53
2018-12-13T09:09:46.103Z,1.57
2018-12-13T09:12:13.523Z,1.56
2018-12-13T09:14:40.968Z,1.57
2018-12-13T09:17:08.398Z,1.57
2018-12-13T09:19:35.827Z,1.58
2018-12-13T09:22:03.271Z,1.58
2018-12-13T09:24:30.722Z,1.57
2018-12-13T09:26:58.151Z,1.53
2018-12-13T09:29:25.575Z,1.50
2018-12-13T09:31:54.073Z,1.53
2018-12-13T09:34:21.523Z,1.61
2018-12-13T09:36:48.958Z,1.54
2018-12-13T09:39:16.369Z,1.63
2018-12-13T09:41:43.799Z,1.67
2018-12-13T09:44:13.668Z,1.60
2018-12-13T09:46:41.206Z,1.63
2018-12-13T09:49:08.627Z,1.63
2018-12-13T09:51:36.057Z,1.77
2018-12-13T09:54:03.692Z,1.84
2018-12-13T09:56:31.311Z,1.90
2018-12-13T09:58:58.729Z,2.02
2018-12-13T10:01:26.168Z,1.92
2018-12-13T10:03:53.743Z,2.08
2018-12-13T10:06:21.156Z,2.10
2018-12-13T10:08:48.623Z,2.13
2018-12-13T10:11:16.075Z,2.11
2018-12-13T10:13:43.512Z,2.16
2018-12-13T10:16:10.991Z,2.14
2018-12-13T10:18:38.424Z,2.22
2018-12-13T10:21:05.850Z,2.24
2018-12-13T10:23:33.284Z,2.13
2018-12-13T10:26:00.709Z,2.17
2018-12-13T10:28:28.129Z,2.18
2018-12-13T10:30:55.543Z,2.24
2018-12-13T10:33:22.964Z,2.28
2018-12-13T10:35:50.402Z,2.22
2018-12-13T10:38:17.838Z,2.25
2018-12-13T10:40:45.278Z,2.36
2018-12-13T10:43:12.699Z,2.43
2018-12-13T10:45:40.122Z,2.41
2018-12-13T10:48:07.563Z,2.37
2018-12-13T10:50:35.003Z,2.47
2018-12-13T10:53:02.436Z,2.47
2018-12-13T10:55:29.901Z,2.52
2018-12-13T10:57:57.466Z,2.59
2018-12-13T11:00:30.516Z,2.63
2018-12-13T11:03:25.531Z,2.71
2018-12-13T11:05:52.988Z,2.86
2018-12-13T11:08:20.440Z,2.96
2018-12-13T11:10:47.874Z,2.98
2018-12-13T11:13:15.322Z,2.97
2018-12-13T11:15:42.786Z,2.96
2018-12-13T11:18:10.199Z,2.54
2018-12-13T11:20:37.616Z,2.62
2018-12-13T11:23:05.040Z,2.50
2018-12-13T11:25:32.459Z,2.57
2018-12-13T11:28:12.671Z,2.67
2018-12-13T11:30:40.110Z,2.54
2018-12-13T11:33:07.559Z,2.48
2018-12-13T11:35:34.987Z,2.56
2018-12-13T11:38:02.443Z,2.58
2018-12-13T11:40:29.913Z,2.67
2018-12-13T11:42:57.363Z,2.90
2018-12-13T11:45:24.781Z,2.95
2018-12-13T11:47:52.268Z,2.82
2018-12-13T11:50:19.710Z,2.81
2018-12-13T11:52:47.228Z,2.92
2018-12-13T11:55:26.476Z,2.92
2018-12-13T11:57:53.903Z,2.94
2018-12-13T12:00:21.331Z,2.94
2018-12-13T12:02:48.805Z,3.02
2018-12-13T12:05:16.223Z,3.10
2018-12-13T12:07:43.652Z,3.20
2018-12-13T12:10:11.102Z,3.19
2018-12-13T12:12:38.519Z,3.05
2018-12-13T12:15:06.977Z,2.95
2018-12-13T12:17:34.429Z,2.68
2018-12-13T12:20:02.816Z,2.73
2018-12-13T12:22:30.220Z,2.82
2018-12-13T12:24:57.720Z,2.87
2018-12-13T12:27:25.111Z,2.85
2018-12-13T12:29:52.545Z,2.93
2018-12-13T12:32:19.980Z,2.82
2018-12-13T12:34:47.393Z,2.68
2018-12-13T12:37:14.826Z,2.62
2018-12-13T12:39:42.367Z,2.67
2018-12-13T12:42:09.784Z,2.52
2018-12-13T12:44:39.147Z,2.71
2018-12-13T12:47:06.555Z,2.59
2018-12-13T12:49:34.004Z,2.47
2018-12-13T12:52:01.441Z,2.62
2018-12-13T12:54:28.879Z,2.70
2018-12-13T12:56:56.307Z,2.69
2018-12-13T12:59:23.716Z,2.72
2018-12-13T13:01:51.129Z,2.77
2018-12-13T13:04:18.569Z,2.85
2018-12-13T13:06:46.033Z,2.93
2018-12-13T13:09:13.466Z,2.93
2018-12-13T13:11:40.887Z,2.90
2018-12-13T13:14:08.423Z,2.82
2018-12-13T13:16:35.849Z,2.92
2018-12-13T13:19:03.290Z,2.89
2018-12-13T13:21:30.800Z,3.01
2018-12-13T13:23:58.204Z,3.08
2018-12-13T13:26:25.655Z,3.01
2018-12-13T13:28:53.155Z,3.07
2018-12-13T13:31:20.621Z,3.09
2018-12-13T13:33:48.063Z,3.08
2018-12-13T13:36:15.495Z,3.17
2018-12-13T13:38:42.919Z,3.19
2018-12-13T13:41:10.363Z,3.26
2018-12-13T13:43:38.535Z,3.31
2018-12-13T13:46:05.992Z,3.33
2018-12-13T13:48:33.461Z,3.27
2018-12-13T13:51:00.874Z,3.29
2018-12-13T13:53:28.292Z,3.36
2018-12-13T13:55:55.721Z,3.34
2018-12-13T13:58:23.183Z,3.26
2018-12-13T14:00:50.592Z,3.32
2018-12-13T14:03:18.016Z,3.25
2018-12-13T14:05:45.444Z,3.32
2018-12-13T14:08:12.863Z,3.30
2018-12-13T14:10:40.313Z,3.24
2018-12-13T14:13:07.773Z,3.26
2018-12-13T14:15:35.191Z,3.32
2018-12-13T14:18:02.631Z,3.30
2018-12-13T14:20:30.055Z,3.20
2018-12-13T14:22:58.320Z,3.21
2018-12-13T14:25:25.746Z,3.20
2018-12-13T14:27:53.167Z,3.21
2018-12-13T14:30:20.604Z,3.24
2018-12-13T14:32:48.038Z,3.21
2018-12-13T14:35:15.505Z,3.24
2018-12-13T14:37:42.933Z,3.26
2018-12-13T14:40:10.384Z,3.30
2018-12-13T14:42:37.806Z,3.30
2018-12-13T14:45:05.481Z,3.25
2018-12-13T14:47:33.031Z,3.26
2018-12-13T14:50:00.800Z,3.19
2018-12-13T14:52:28.210Z,3.26
2018-12-13T14:54:55.659Z,3.16
2018-12-13T14:57:23.111Z,3.13
2018-12-13T14:59:50.540Z,3.05
2018-12-13T15:02:18.006Z,3.12
2018-12-13T15:04:45.433Z,3.18
2018-12-13T15:07:12.879Z,3.13
2018-12-13T15:09:40.299Z,3.13
2018-12-13T15:12:07.719Z,3.17
2018-12-13T15:14:35.135Z,3.23
2018-12-13T15:17:02.547Z,3.14
2018-12-13T15:19:30.024Z,3.24
2018-12-13T15:21:57.435Z,3.24
2018-12-13T15:24:24.863Z,3.24
2018-12-13T15:26:52.276Z,3.27
2018-12-13T15:29:19.761Z,3.30
2018-12-13T15:31:47.180Z,3.23
2018-12-13T15:34:14.600Z,3.24
2018-12-13T15:36:42.808Z,3.27
2018-12-13T15:39:10.223Z,3.28
2018-12-13T15:41:37.645Z,3.24
2018-12-13T15:44:05.145Z,3.25
2018-12-13T15:46:32.575Z,3.26
2018-12-13T15:48:59.997Z,3.30
2018-12-13T15:51:27.452Z,3.24
2018-12-13T15:53:54.909Z,3.33
2018-12-13T15:56:22.320Z,3.31
2018-12-13T15:58:49.764Z,3.32
2018-12-13T16:01:17.210Z,3.29
2018-12-13T16:03:44.666Z,3.23
2018-12-13T16:06:12.080Z,3.22
2018-12-13T16:08:39.519Z,3.16
2018-12-13T16:11:06.956Z,3.12
2018-12-13T16:13:34.378Z,3.08
2018-12-13T16:16:01.792Z,3.01
2018-12-13T16:18:29.234Z,3.07
2018-12-13T16:20:56.706Z,3.08
2018-12-13T16:23:24.148Z,3.06
2018-12-13T16:25:51.564Z,3.02
2018-12-13T16:28:18.988Z,3.04
2018-12-13T16:30:46.394Z,3.08
2018-12-13T16:33:13.941Z,3.03
2018-12-13T16:35:41.362Z,3.03
2018-12-13T16:38:08.780Z,2.99
2018-12-13T16:40:36.218Z,3.03
2018-12-13T16:43:03.711Z,3.06
2018-12-13T16:45:31.149Z,2.96
2018-12-13T16:47:58.572Z,2.92
2018-12-13T16:50:25.992Z,2.97
2018-12-13T16:52:54.146Z,2.99
2018-12-13T16:55:21.609Z,2.95
2018-12-13T16:57:49.077Z,2.89
2018-12-13T17:00:16.539Z,2.88
2018-12-13T17:02:43.976Z,2.86
2018-12-13T17:05:11.451Z,2.81
2018-12-13T17:07:38.859Z,2.86
2018-12-13T17:10:07.765Z,2.93
2018-12-13T17:12:35.269Z,2.91
2018-12-13T17:15:02.744Z,2.90
2018-12-13T17:17:30.173Z,2.85
2018-12-13T17:19:58.144Z,2.76
2018-12-13T17:22:25.584Z,2.66
2018-12-13T17:24:53.055Z,2.73
2018-12-13T17:27:20.507Z,2.78
2018-12-13T17:29:47.989Z,2.81
2018-12-13T17:32:15.420Z,2.78
2018-12-13T17:34:42.839Z,2.86
2018-12-13T17:37:10.515Z,2.82
2018-12-13T17:39:38.162Z,2.83
2018-12-13T17:42:05.602Z,2.84
2018-12-13T17:44:33.056Z,2.80
2018-12-13T17:47:00.498Z,2.73
2018-12-13T17:49:27.912Z,2.65
2018-12-13T17:51:55.343Z,2.60
2018-12-13T17:54:22.782Z,2.63
2018-12-13T17:56:50.201Z,2.65
2018-12-13T17:59:17.637Z,2.73
2018-12-13T18:01:45.062Z,2.74
2018-12-13T18:04:12.509Z,2.80
2018-12-13T18:06:39.950Z,2.70
2018-12-13T18:09:07.508Z,2.75
2018-12-13T18:11:34.936Z,2.72
2018-12-13T18:14:02.404Z,2.66
2018-12-13T18:16:30.050Z,2.73
2018-12-13T18:18:57.506Z,2.70
2018-12-13T18:21:24.956Z,2.71
2018-12-13T18:23:52.461Z,2.70
2018-12-13T18:26:19.941Z,2.60
2018-12-13T18:28:49.167Z,2.60
2018-12-13T18:31:16.647Z,2.53
2018-12-13T18:33:44.280Z,2.61
2018-12-13T18:36:11.703Z,2.58
2018-12-13T18:38:39.133Z,2.62
2018-12-13T18:41:06.554Z,2.65
2018-12-13T18:43:33.975Z,2.64
2018-12-13T18:46:01.426Z,2.62
2018-12-13T18:48:28.971Z,2.61
2018-12-13T18:50:56.407Z,2.59
2018-12-13T18:53:23.836Z,2.59
2018-12-13T18:55:51.259Z,2.56
2018-12-13T18:58:18.720Z,2.60
2018-12-13T19:00:46.166Z,2.64
2018-12-13T19:03:13.631Z,2.58
2018-12-13T19:05:41.075Z,2.60
2018-12-13T19:08:08.522Z,2.51
2018-12-13T19:10:41.778Z,2.56
2018-12-13T19:13:05.371Z,2.52
2018-12-13T19:15:32.844Z,2.51
2018-12-13T19:18:00.259Z,2.58
2018-12-13T19:20:27.696Z,2.58
2018-12-13T19:22:55.132Z,2.55
2018-12-13T19:25:22.561Z,2.58
2018-12-13T19:27:50.013Z,2.57
2018-12-13T19:30:17.504Z,2.50
2018-12-13T19:32:44.931Z,2.55
2018-12-13T19:35:12.384Z,2.56
2018-12-13T19:37:39.831Z,2.47
2018-12-13T19:40:07.686Z,2.38
2018-12-13T19:42:35.199Z,2.37
2018-12-13T19:45:02.637Z,2.45
2018-12-13T19:47:30.481Z,2.47
2018-12-13T19:49:57.929Z,2.50
2018-12-13T19:52:25.375Z,2.50
2018-12-13T19:54:52.805Z,2.49
2018-12-13T19:57:20.230Z,2.42
2018-12-13T19:59:47.693Z,2.40
2018-12-13T20:02:15.149Z,2.45
2018-12-13T20:04:42.619Z,2.44
2018-12-13T20:07:10.093Z,2.38
2018-12-13T20:09:37.571Z,2.41
2018-12-13T20:12:05.045Z,2.37
2018-12-13T20:14:32.473Z,2.39
2018-12-13T20:16:59.934Z,2.41
2018-12-13T20:19:27.359Z,2.32
2018-12-13T20:21:54.829Z,2.25
2018-12-13T20:24:22.287Z,2.28
2018-12-13T20:26:49.868Z,2.35
2018-12-13T20:29:17.625Z,2.36
2018-12-13T20:31:45.061Z,2.38
2018-12-13T20:34:12.523Z,2.34
2018-12-13T20:36:39.967Z,2.29
2018-12-13T20:39:08.545Z,2.19
2018-12-13T20:41:37.233Z,2.17
2018-12-13T20:44:04.693Z,2.17
2018-12-13T20:46:32.133Z,2.27
2018-12-13T20:48:59.597Z,2.23
2018-12-13T20:51:27.181Z,2.20
2018-12-13T20:53:54.628Z,2.22
2018-12-13T20:56:22.061Z,2.19
2018-12-13T20:58:49.496Z,2.17
2018-12-13T21:01:16.923Z,2.13
2018-12-13T21:03:44.344Z,2.22
2018-12-13T21:06:11.835Z,2.19
2018-12-13T21:08:39.292Z,2.22
2018-12-13T21:11:07.618Z,2.19
2018-12-13T21:13:35.403Z,2.19
2018-12-13T21:16:02.885Z,2.24
2018-12-13T21:18:30.393Z,2.22
2018-12-13T21:20:57.848Z,2.20
2018-12-13T21:23:25.312Z,2.23
2018-12-13T21:25:52.739Z,2.22
2018-12-13T21:28:20.175Z,2.25
2018-12-13T21:30:47.616Z,2.22
2018-12-13T21:33:15.051Z,2.18
2018-12-13T21:35:42.499Z,2.14
2018-12-13T21:38:09.938Z,2.14
2018-12-13T21:40:37.360Z,2.12
2018-12-13T21:43:04.803Z,2.07
2018-12-13T21:45:32.255Z,2.07
2018-12-13T21:47:59.729Z,2.14
2018-12-13T21:50:27.162Z,2.02
2018-12-13T21:52:54.585Z,2.05
2018-12-13T21:55:22.041Z,2.05
2018-12-13T21:57:49.463Z,2.01
2018-12-13T22:00:16.884Z,1.99
2018-12-13T22:02:44.307Z,2.01
2018-12-13T22:05:11.747Z,2.03
2018-12-13T22:07:39.204Z,2.07
2018-12-13T22:10:06.987Z,2.07
2018-12-13T22:12:34.424Z,2.07
2018-12-13T22:15:02.612Z,2.11
2018-12-13T22:17:30.286Z,2.12
2018-12-13T22:19:57.713Z,2.10
2018-12-13T22:22:25.127Z,2.15
2018-12-13T22:24:52.585Z,2.08
2018-12-13T22:27:20.003Z,2.09
2018-12-13T22:29:47.439Z,2.07
2018-12-13T22:32:14.870Z,2.21
2018-12-13T22:34:42.415Z,2.15
2018-12-13T22:37:10.198Z,2.13
2018-12-13T22:39:37.749Z,2.07
2018-12-13T22:42:05.216Z,1.90
2018-12-13T22:44:32.814Z,1.91
2018-12-13T22:47:00.299Z,1.90
2018-12-13T22:49:27.716Z,1.89
2018-12-13T22:51:55.165Z,1.95
2018-12-13T22:54:22.643Z,1.84
2018-12-13T22:56:50.174Z,1.88
2018-12-13T22:59:17.736Z,1.90
2018-12-13T23:01:45.359Z,1.92
2018-12-13T23:04:12.879Z,1.80
2018-12-13T23:06:40.313Z,1.72
2018-12-13T23:09:07.727Z,1.76
2018-12-13T23:11:35.170Z,1.86
2018-12-13T23:14:02.712Z,1.70
2018-12-13T23:16:30.142Z,1.66
2018-12-13T23:18:57.704Z,1.80
2018-12-13T23:21:25.123Z,1.79
2018-12-13T23:23:52.555Z,1.83
2018-12-13T23:26:19.999Z,1.79
2018-12-13T23:28:47.471Z,1.85
2018-12-13T23:31:14.981Z,1.88
2018-12-13T23:33:43.380Z,1.93
2018-12-13T23:36:10.787Z,1.94
2018-12-13T23:38:38.255Z,1.95
2018-12-13T23:41:05.698Z,1.91
2018-12-13T23:43:33.121Z,1.87
2018-12-13T23:46:00.544Z,1.92
2018-12-13T23:48:27.958Z,1.83
2018-12-13T23:50:55.614Z,1.80
2018-12-13T23:53:23.076Z,1.83
2018-12-13T23:55:50.582Z,1.79
2018-12-13T23:58:18.000Z,1.82
